createdAt,value
2023-01-08T00:02:45.869Z,1.80
2023-01-08T00:05:33.048Z,1.80
2023-01-08T00:08:20.419Z,1.80
2023-01-08T00:11:09.293Z,1.80
2023-01-08T00:13:57.284Z,1.80
2023-01-08T00:16:44.699Z,1.80
2023-01-08T00:19:31.904Z,1.80
2023-01-08T00:22:19.212Z,1.80
2023-01-08T00:25:07.366Z,1.70
2023-01-08T00:27:56.230Z,1.70
2023-01-08T00:30:43.884Z,1.70
2023-01-08T00:33:31.588Z,1.70
2023-01-08T00:36:20.631Z,1.80
2023-01-08T00:39:07.841Z,1.80
2023-01-08T00:41:54.913Z,1.80
2023-01-08T00:44:43.583Z,1.70
2023-01-08T00:47:31.346Z,1.70
2023-01-08T00:50:19.140Z,1.70
2023-01-08T00:53:06.280Z,1.70
2023-01-08T00:56:01.083Z,1.70
2023-01-08T00:58:48.418Z,1.70
2023-01-08T01:01:37.232Z,1.70
2023-01-08T01:04:26.278Z,1.60
2023-01-08T01:07:13.800Z,1.60
2023-01-08T01:10:01.049Z,1.60
2023-01-08T01:12:48.561Z,1.50
2023-01-08T01:15:35.625Z,1.50
2023-01-08T01:18:24.078Z,1.50
2023-01-08T01:21:12.653Z,1.40
2023-01-08T01:24:01.724Z,1.40
2023-01-08T01:26:48.879Z,1.30
2023-01-08T01:29:36.375Z,1.30
2023-01-08T01:32:23.701Z,1.20
2023-01-08T01:35:12.685Z,1.20
2023-01-08T01:37:59.703Z,1.10
2023-01-08T01:40:46.795Z,1.10
2023-01-08T01:43:39.549Z,1.00
2023-01-08T01:46:37.888Z,1.00
2023-01-08T01:49:25.476Z,0.90
2023-01-08T01:52:14.104Z,0.80
2023-01-08T01:55:03.742Z,0.80
2023-01-08T01:58:04.027Z,0.80
2023-01-08T02:00:52.463Z,0.80
2023-01-08T02:03:41.282Z,0.80
2023-01-08T02:06:38.282Z,0.80
2023-01-08T02:09:41.954Z,0.70
2023-01-08T02:12:33.606Z,0.70
2023-01-08T02:15:25.252Z,0.60
2023-01-08T02:18:18.271Z,0.50
2023-01-08T02:21:11.307Z,0.50
2023-01-08T02:24:04.634Z,0.40
2023-01-08T02:26:56.050Z,0.30
2023-01-08T02:29:43.325Z,0.30
2023-01-08T02:32:35.462Z,0.20
2023-01-08T02:35:23.159Z,0.10
2023-01-08T02:38:13.962Z,0.10
2023-01-08T02:41:05.756Z,0.00
2023-01-08T02:43:56.806Z,0.00
2023-01-08T02:46:45.114Z,-0.10
2023-01-08T02:49:36.304Z,-0.10
2023-01-08T02:52:27.118Z,-0.10
2023-01-08T02:55:14.983Z,-0.10
2023-01-08T02:58:04.065Z,-0.10
2023-01-08T03:00:54.508Z,-0.10
2023-01-08T03:03:44.765Z,0.00
2023-01-08T03:06:32.840Z,0.00
2023-01-08T03:09:20.685Z,0.10
2023-01-08T03:12:17.867Z,0.10
2023-01-08T03:15:09.466Z,0.10
2023-01-08T03:18:02.941Z,0.10
2023-01-08T03:20:52.030Z,0.00
2023-01-08T03:23:41.132Z,0.00
2023-01-08T03:26:30.246Z,0.00
2023-01-08T03:29:21.569Z,0.00
2023-01-08T03:32:14.978Z,0.00
2023-01-08T03:35:05.127Z,0.00
2023-01-08T03:37:57.763Z,0.00
2023-01-08T03:40:48.684Z,-0.10
2023-01-08T03:43:35.963Z,-0.10
2023-01-08T03:46:28.928Z,-0.10
2023-01-08T03:49:17.300Z,-0.10
2023-01-08T03:52:05.859Z,-0.20
2023-01-08T03:54:53.154Z,-0.20
2023-01-08T03:57:40.378Z,-0.20
2023-01-08T04:00:28.047Z,-0.20
2023-01-08T04:03:15.421Z,-0.20
2023-01-08T04:06:03.119Z,-0.30
2023-01-08T04:08:51.991Z,-0.30
2023-01-08T04:11:39.458Z,-0.30
2023-01-08T04:14:26.747Z,-0.40
2023-01-08T04:17:15.290Z,-0.30
2023-01-08T04:20:02.890Z,-0.30
2023-01-08T04:22:49.961Z,-0.30
2023-01-08T04:25:40.020Z,-0.30
2023-01-08T04:28:28.754Z,-0.30
2023-01-08T04:31:16.347Z,-0.30
2023-01-08T04:34:04.141Z,-0.10
2023-01-08T04:36:51.114Z,-0.10
2023-01-08T04:39:38.306Z,0.00
2023-01-08T04:42:27.098Z,0.00
2023-01-08T04:45:14.465Z,0.10
2023-01-08T04:48:01.813Z,0.10
2023-01-08T04:50:48.793Z,0.10
2023-01-08T04:53:39.289Z,0.10
2023-01-08T04:56:26.619Z,0.10
2023-01-08T04:59:15.065Z,0.20
2023-01-08T05:02:02.334Z,0.30
2023-01-08T05:04:49.957Z,0.40
2023-01-08T05:07:37.192Z,0.50
2023-01-08T05:10:24.289Z,0.60
2023-01-08T05:13:11.525Z,0.60
2023-01-08T05:16:01.985Z,0.70
2023-01-08T05:18:49.788Z,0.70
2023-01-08T05:21:37.338Z,0.70
2023-01-08T05:24:24.608Z,0.70
2023-01-08T05:27:11.739Z,0.80
2023-01-08T05:29:58.904Z,0.80
2023-01-08T05:32:47.519Z,0.90
2023-01-08T05:35:34.984Z,0.90
2023-01-08T05:38:22.238Z,1.00
2023-01-08T05:41:10.707Z,0.90
2023-01-08T05:43:57.994Z,0.90
2023-01-08T05:46:45.340Z,0.90
2023-01-08T05:49:33.973Z,0.80
2023-01-08T05:52:21.343Z,0.80
2023-01-08T05:55:09.553Z,0.70
2023-01-08T05:57:57.148Z,0.60
2023-01-08T06:00:44.307Z,0.60
2023-01-08T06:03:31.517Z,0.60
2023-01-08T06:06:20.179Z,0.50
2023-01-08T06:09:08.043Z,0.50
2023-01-08T06:11:57.985Z,0.40
2023-01-08T06:14:45.289Z,0.40
2023-01-08T06:17:32.769Z,0.40
2023-01-08T06:20:19.945Z,0.30
2023-01-08T06:23:09.581Z,0.20
2023-01-08T06:25:58.345Z,0.20
2023-01-08T06:28:45.820Z,0.20
2023-01-08T06:31:33.380Z,0.20
2023-01-08T06:34:20.737Z,0.10
2023-01-08T06:37:08.066Z,0.10
2023-01-08T06:39:56.838Z,0.20
2023-01-08T06:42:44.579Z,0.30
2023-01-08T06:45:32.159Z,0.40
2023-01-08T06:48:19.552Z,0.50
2023-01-08T06:51:07.087Z,0.60
2023-01-08T06:53:54.572Z,0.70
2023-01-08T06:56:53.268Z,0.80
2023-01-08T06:59:41.402Z,0.90
2023-01-08T07:02:28.716Z,1.00
2023-01-08T07:05:16.319Z,1.10
2023-01-08T07:08:03.730Z,1.10
2023-01-08T07:10:51.026Z,1.10
2023-01-08T07:13:39.688Z,1.10
2023-01-08T07:16:26.995Z,1.20
2023-01-08T07:19:14.666Z,1.20
2023-01-08T07:22:02.364Z,1.20
2023-01-08T07:24:49.614Z,1.20
2023-01-08T07:27:36.753Z,1.20
2023-01-08T07:30:30.135Z,1.20
2023-01-08T07:33:17.711Z,1.20
2023-01-08T07:36:05.677Z,1.20
2023-01-08T07:38:53.469Z,1.20
2023-01-08T07:41:40.867Z,1.20
2023-01-08T07:44:28.249Z,1.20
2023-01-08T07:47:17.076Z,1.20
2023-01-08T07:50:04.809Z,1.20
2023-01-08T07:52:52.345Z,1.20
2023-01-08T07:55:39.981Z,1.20
2023-01-08T07:58:27.146Z,1.30
2023-01-08T08:01:16.548Z,1.30
2023-01-08T08:04:05.478Z,1.40
2023-01-08T08:06:53.080Z,1.50
2023-01-08T08:09:40.538Z,1.60
2023-01-08T08:12:27.888Z,1.70
2023-01-08T08:15:15.550Z,1.70
2023-01-08T08:18:03.030Z,1.80
2023-01-08T08:20:52.129Z,1.90
2023-01-08T08:23:39.760Z,1.90
2023-01-08T08:26:27.233Z,2.00
2023-01-08T08:29:14.843Z,2.00
2023-01-08T08:32:01.933Z,2.10
2023-01-08T08:34:50.664Z,2.20
2023-01-08T08:37:39.288Z,2.30
2023-01-08T08:40:27.759Z,2.40
2023-01-08T08:43:14.879Z,2.50
2023-01-08T08:46:02.074Z,2.70
2023-01-08T08:48:49.563Z,2.80
2023-01-08T08:51:37.144Z,2.90
2023-01-08T08:54:25.947Z,2.90
2023-01-08T08:57:13.336Z,3.10
2023-01-08T09:00:01.529Z,3.30
2023-01-08T09:02:51.835Z,3.60
2023-01-08T09:05:39.001Z,3.80
2023-01-08T09:08:26.380Z,4.00
2023-01-08T09:11:14.806Z,4.30
2023-01-08T09:14:02.161Z,4.50
2023-01-08T09:16:49.611Z,4.70
2023-01-08T09:19:36.764Z,4.90
2023-01-08T09:22:24.115Z,5.10
2023-01-08T09:25:11.712Z,5.20
2023-01-08T09:28:04.750Z,5.40
2023-01-08T09:30:52.195Z,5.50
2023-01-08T09:33:39.559Z,5.60
2023-01-08T09:36:26.745Z,5.70
2023-01-08T09:39:14.499Z,5.70
2023-01-08T09:42:04.449Z,5.90
2023-01-08T09:44:56.530Z,6.00
2023-01-08T09:47:45.147Z,6.00
2023-01-08T09:50:33.129Z,6.20
2023-01-08T09:53:20.936Z,6.40
2023-01-08T09:56:14.363Z,6.60
2023-01-08T09:59:04.366Z,6.80
2023-01-08T10:01:54.205Z,7.00
2023-01-08T10:04:41.832Z,7.20
2023-01-08T10:07:31.343Z,7.30
2023-01-08T10:10:22.221Z,7.40
2023-01-08T10:13:12.592Z,7.40
2023-01-08T10:16:00.976Z,7.50
2023-01-08T10:18:49.716Z,7.60
2023-01-08T10:21:40.015Z,7.60
2023-01-08T10:24:35.407Z,7.70
2023-01-08T10:27:24.533Z,7.80
2023-01-08T10:30:17.485Z,7.90
2023-01-08T10:33:07.330Z,8.00
2023-01-08T10:35:59.775Z,8.10
2023-01-08T10:38:53.738Z,8.20
2023-01-08T10:41:40.985Z,8.20
2023-01-08T10:44:28.524Z,8.20
2023-01-08T10:47:19.096Z,8.30
2023-01-08T10:50:17.149Z,8.30
2023-01-08T10:53:07.427Z,8.20
2023-01-08T10:56:02.233Z,8.20
2023-01-08T10:58:50.133Z,8.40
2023-01-08T11:01:37.517Z,8.50
2023-01-08T11:04:32.410Z,8.60
2023-01-08T11:07:22.854Z,8.70
2023-01-08T11:10:25.058Z,8.70
2023-01-08T11:13:18.968Z,8.80
2023-01-08T11:16:10.514Z,8.80
2023-01-08T11:18:58.295Z,8.80
2023-01-08T11:21:56.932Z,8.80
2023-01-08T11:24:45.705Z,8.90
2023-01-08T11:27:38.028Z,8.90
2023-01-08T11:30:27.879Z,9.10
2023-01-08T11:33:20.194Z,9.20
2023-01-08T11:36:15.002Z,9.30
2023-01-08T11:39:03.108Z,9.40
2023-01-08T11:42:15.649Z,9.50
2023-01-08T11:45:25.853Z,9.60
2023-01-08T11:48:31.352Z,9.60
2023-01-08T11:51:40.420Z,9.60
2023-01-08T11:54:41.450Z,9.70
2023-01-08T11:57:42.328Z,9.70
2023-01-08T12:00:46.354Z,9.70
2023-01-08T12:03:37.789Z,9.70
2023-01-08T12:06:35.667Z,9.70
2023-01-08T12:09:36.822Z,9.70
2023-01-08T12:12:39.741Z,9.70
2023-01-08T12:15:36.934Z,9.70
2023-01-08T12:18:55.969Z,9.60
2023-01-08T12:21:56.179Z,9.60
2023-01-08T12:25:09.172Z,9.70
2023-01-08T12:28:05.982Z,9.70
2023-01-08T12:31:12.898Z,9.70
2023-01-08T12:34:05.457Z,9.70
2023-01-08T12:36:58.036Z,9.70
2023-01-08T12:39:51.261Z,9.80
2023-01-08T12:42:47.296Z,9.80
2023-01-08T12:45:43.120Z,9.80
2023-01-08T12:48:34.920Z,9.80
2023-01-08T12:51:32.721Z,9.70
2023-01-08T12:54:28.106Z,9.60
2023-01-08T12:57:22.654Z,9.60
2023-01-08T13:00:19.545Z,9.50
2023-01-08T13:03:15.027Z,9.50
2023-01-08T13:06:11.632Z,9.40
2023-01-08T13:09:02.032Z,9.30
2023-01-08T13:11:53.995Z,9.30
2023-01-08T13:14:43.311Z,9.20
2023-01-08T13:17:31.068Z,9.10
2023-01-08T13:20:23.173Z,9.00
2023-01-08T13:23:25.500Z,8.90
2023-01-08T13:26:33.102Z,8.80
2023-01-08T13:29:41.287Z,8.70
2023-01-08T13:32:42.110Z,8.60
2023-01-08T13:35:31.620Z,8.50
2023-01-08T13:38:20.489Z,8.50
2023-01-08T13:41:25.179Z,8.40
2023-01-08T13:44:23.582Z,8.40
2023-01-08T13:47:20.880Z,8.30
2023-01-08T13:50:20.673Z,8.20
2023-01-08T13:53:13.330Z,8.10
2023-01-08T13:56:03.289Z,8.10
2023-01-08T13:58:55.399Z,8.00
2023-01-08T14:01:53.535Z,8.00
2023-01-08T14:04:49.153Z,7.90
2023-01-08T14:07:40.762Z,7.90
2023-01-08T14:10:30.397Z,7.80
2023-01-08T14:13:19.218Z,7.80
2023-01-08T14:16:14.856Z,7.70
2023-01-08T14:19:05.801Z,7.60
2023-01-08T14:21:56.036Z,7.60
2023-01-08T14:24:45.566Z,7.50
2023-01-08T14:27:34.188Z,7.40
2023-01-08T14:30:22.002Z,7.30
2023-01-08T14:33:14.259Z,7.20
2023-01-08T14:36:02.710Z,7.10
2023-01-08T14:38:52.314Z,7.00
2023-01-08T14:42:00.535Z,6.90
2023-01-08T14:44:55.557Z,6.80
2023-01-08T14:47:45.989Z,6.70
2023-01-08T14:50:37.137Z,6.60
2023-01-08T14:53:29.521Z,6.50
2023-01-08T14:56:20.941Z,6.40
2023-01-08T14:59:10.101Z,6.20
2023-01-08T15:02:01.005Z,6.10
2023-01-08T15:04:48.175Z,6.00
2023-01-08T15:07:36.831Z,6.00
2023-01-08T15:10:36.009Z,5.90
2023-01-08T15:13:24.726Z,5.80
2023-01-08T15:16:17.915Z,5.80
2023-01-08T15:19:07.972Z,5.70
2023-01-08T15:21:58.313Z,5.70
2023-01-08T15:24:58.166Z,5.60
2023-01-08T15:27:53.659Z,5.60
2023-01-08T15:30:46.559Z,5.60
2023-01-08T15:33:33.694Z,5.50
2023-01-08T15:36:21.463Z,5.50
2023-01-08T15:39:08.739Z,5.50
2023-01-08T15:42:15.438Z,5.50
2023-01-08T15:45:02.561Z,5.50
2023-01-08T15:47:49.951Z,5.40
2023-01-08T15:50:40.174Z,5.40
2023-01-08T15:53:27.770Z,5.40
2023-01-08T15:56:15.956Z,5.30
2023-01-08T15:59:04.769Z,5.30
2023-01-08T16:01:52.229Z,5.20
2023-01-08T16:04:39.729Z,5.20
2023-01-08T16:07:27.029Z,5.10
2023-01-08T16:10:15.355Z,5.10
2023-01-08T16:13:03.436Z,5.10
2023-01-08T16:15:51.866Z,5.10
2023-01-08T16:18:39.380Z,5.10
2023-01-08T16:21:26.799Z,5.10
2023-01-08T16:24:14.652Z,5.10
2023-01-08T16:27:02.254Z,5.20
2023-01-08T16:29:49.614Z,5.20
2023-01-08T16:32:38.254Z,5.30
2023-01-08T16:35:25.690Z,5.30
2023-01-08T16:38:14.132Z,5.30
2023-01-08T16:41:01.697Z,5.30
2023-01-08T16:43:49.138Z,5.30
2023-01-08T16:46:36.709Z,5.20
2023-01-08T16:49:25.928Z,5.20
2023-01-08T16:52:13.375Z,5.20
2023-01-08T16:55:00.862Z,5.20
2023-01-08T16:57:48.579Z,5.20
2023-01-08T17:00:36.829Z,5.20
2023-01-08T17:03:24.277Z,5.20
2023-01-08T17:06:15.319Z,5.10
2023-01-08T17:09:02.524Z,5.00
2023-01-08T17:11:49.756Z,5.00
2023-01-08T17:14:37.490Z,5.00
2023-01-08T17:17:24.513Z,5.00
2023-01-08T17:20:12.928Z,5.00
2023-01-08T17:23:01.746Z,5.00
2023-01-08T17:25:48.925Z,5.00
2023-01-08T17:28:36.529Z,5.00
2023-01-08T17:31:24.420Z,4.90
2023-01-08T17:34:14.591Z,4.90
2023-01-08T17:37:01.991Z,4.80
2023-01-08T17:39:50.873Z,4.70
2023-01-08T17:42:39.320Z,4.70
2023-01-08T17:45:26.746Z,4.60
2023-01-08T17:48:13.957Z,4.60
2023-01-08T17:51:01.615Z,4.60
2023-01-08T17:53:49.052Z,4.60
2023-01-08T17:56:37.866Z,4.60
2023-01-08T17:59:25.135Z,4.60
2023-01-08T18:02:15.839Z,4.50
2023-01-08T18:05:03.288Z,4.50
2023-01-08T18:07:50.494Z,4.50
2023-01-08T18:10:38.737Z,4.50
2023-01-08T18:13:27.370Z,4.50
2023-01-08T18:16:15.617Z,4.50
2023-01-08T18:19:03.051Z,4.60
2023-01-08T18:21:50.161Z,4.60
2023-01-08T18:24:37.470Z,4.60
2023-01-08T18:27:24.878Z,4.70
2023-01-08T18:30:14.591Z,4.70
2023-01-08T18:33:01.849Z,4.70
2023-01-08T18:35:49.038Z,4.80
2023-01-08T18:38:38.094Z,4.80
2023-01-08T18:41:43.251Z,4.90
2023-01-08T18:44:30.675Z,4.90
2023-01-08T18:47:20.561Z,4.90
2023-01-08T18:50:08.780Z,4.80
2023-01-08T18:52:57.508Z,4.80
2023-01-08T18:55:44.776Z,4.80
2023-01-08T18:58:31.996Z,4.70
2023-01-08T19:01:19.358Z,4.70
2023-01-08T19:04:08.124Z,4.70
2023-01-08T19:06:55.353Z,4.80
2023-01-08T19:09:43.073Z,4.80
2023-01-08T19:12:32.344Z,4.80
2023-01-08T19:15:20.206Z,4.80
2023-01-08T19:18:08.926Z,4.90
2023-01-08T19:21:00.021Z,4.90
2023-01-08T19:23:47.513Z,4.90
2023-01-08T19:26:34.830Z,4.90
2023-01-08T19:29:22.122Z,5.00
2023-01-08T19:32:09.457Z,5.00
2023-01-08T19:34:56.828Z,4.90
2023-01-08T19:37:45.554Z,5.00
2023-01-08T19:40:32.753Z,4.90
2023-01-08T19:43:37.371Z,4.90
2023-01-08T19:46:25.070Z,4.80
2023-01-08T19:49:12.166Z,4.80
2023-01-08T19:51:59.346Z,4.80
2023-01-08T19:54:47.763Z,4.70
2023-01-08T19:57:35.218Z,4.70
2023-01-08T20:00:23.694Z,4.70
2023-01-08T20:03:11.325Z,4.60
2023-01-08T20:05:58.711Z,4.60
2023-01-08T20:08:46.401Z,4.60
2023-01-08T20:11:35.010Z,4.60
2023-01-08T20:14:22.175Z,4.50
2023-01-08T20:17:10.092Z,4.50
2023-01-08T20:19:57.551Z,4.50
2023-01-08T20:22:45.128Z,4.50
2023-01-08T20:25:33.674Z,4.50
2023-01-08T20:28:22.018Z,4.40
2023-01-08T20:31:10.693Z,4.40
2023-01-08T20:33:58.008Z,4.40
2023-01-08T20:36:46.406Z,4.30
2023-01-08T20:39:33.496Z,4.30
2023-01-08T20:42:33.064Z,4.30
2023-01-08T20:45:22.547Z,4.20
2023-01-08T20:48:09.972Z,4.20
2023-01-08T20:50:58.140Z,4.10
2023-01-08T20:53:45.521Z,4.10
2023-01-08T20:56:33.272Z,4.00
2023-01-08T20:59:20.657Z,3.90
2023-01-08T21:02:10.995Z,3.80
2023-01-08T21:04:58.168Z,3.60
2023-01-08T21:07:45.624Z,3.50
2023-01-08T21:10:33.491Z,3.30
2023-01-08T21:13:20.674Z,3.20
2023-01-08T21:16:10.812Z,3.10
2023-01-08T21:19:00.235Z,3.00
2023-01-08T21:21:47.645Z,3.00
2023-01-08T21:24:34.888Z,2.90
2023-01-08T21:27:22.159Z,2.80
2023-01-08T21:30:11.090Z,2.70
2023-01-08T21:32:58.149Z,2.60
2023-01-08T21:35:47.156Z,2.50
2023-01-08T21:38:35.391Z,2.50
2023-01-08T21:41:42.064Z,2.40
2023-01-08T21:44:47.365Z,2.30
2023-01-08T21:47:34.478Z,2.30
2023-01-08T21:50:22.540Z,2.20
2023-01-08T21:53:29.039Z,2.10
2023-01-08T21:56:16.569Z,2.10
2023-01-08T21:59:03.965Z,2.10
2023-01-08T22:01:51.629Z,2.10
2023-01-08T22:04:39.066Z,2.10
2023-01-08T22:07:26.947Z,2.10
2023-01-08T22:10:15.938Z,2.10
2023-01-08T22:13:03.314Z,2.10
2023-01-08T22:15:50.897Z,2.10
2023-01-08T22:18:38.626Z,2.10
2023-01-08T22:21:26.145Z,2.10
2023-01-08T22:24:13.859Z,2.00
2023-01-08T22:27:02.725Z,1.90
2023-01-08T22:29:50.369Z,1.90
2023-01-08T22:32:37.541Z,1.80
2023-01-08T22:35:24.895Z,1.70
2023-01-08T22:38:12.307Z,1.60
2023-01-08T22:40:59.822Z,1.50
2023-01-08T22:43:48.624Z,1.50
2023-01-08T22:46:36.045Z,1.40
2023-01-08T22:49:23.169Z,1.30
2023-01-08T22:52:10.986Z,1.30
2023-01-08T22:54:59.340Z,1.40
2023-01-08T22:57:46.652Z,1.30
2023-01-08T23:00:35.439Z,1.30
2023-01-08T23:03:22.894Z,1.20
2023-01-08T23:06:11.897Z,1.20
2023-01-08T23:08:59.994Z,1.20
2023-01-08T23:11:47.433Z,1.20
2023-01-08T23:14:34.881Z,1.20
2023-01-08T23:17:23.409Z,1.20
2023-01-08T23:20:11.939Z,1.20
2023-01-08T23:22:59.551Z,1.20
2023-01-08T23:25:47.178Z,1.30
2023-01-08T23:28:34.482Z,1.20
2023-01-08T23:31:24.861Z,1.20
2023-01-08T23:34:13.547Z,1.30
2023-01-08T23:37:00.784Z,1.30
2023-01-08T23:39:47.785Z,1.30
2023-01-08T23:42:35.129Z,1.30
2023-01-08T23:45:22.552Z,1.30
2023-01-08T23:48:10.423Z,1.30
2023-01-08T23:50:58.975Z,1.20
2023-01-08T23:53:46.164Z,1.30
2023-01-08T23:56:33.492Z,1.30
2023-01-08T23:59:20.738Z,1.30
